Time;durP1;ratioP1;P1;durP2;ratioP2;P2;SDS_P1;SDS_P2;PMS_P1;PMS_P2;Temp;Humidity;BMP_temperature;BMP_pressure;BME280_temperature;BME280_humidity;BME280_pressure;Samples;Min_cycle;Max_cycle;Signal;HPM_P1;HPM_P2
2021/01/21 00:00:10;;;;;;;0.93;0.67;;;24.00;71.90;;;;;;5093380;28;20441;-69
2021/01/21 00:02:36;;;;;;;1.00;0.77;;;24.00;71.90;;;;;;5093296;28;20795;-70
2021/01/21 00:05:04;;;;;;;1.07;0.90;;;24.00;71.80;;;;;;5093150;28;20439;-69
2021/01/21 00:07:30;;;;;;;0.97;0.77;;;24.00;71.80;;;;;;5093392;28;20444;-69
2021/01/21 00:09:58;;;;;;;1.00;0.70;;;24.00;71.80;;;;;;5093404;28;20440;-68
2021/01/21 00:12:24;;;;;;;1.10;0.90;;;23.90;71.60;;;;;;5093140;28;20472;-69
2021/01/21 00:14:51;;;;;;;1.10;0.90;;;24.00;71.60;;;;;;5093291;28;20451;-69
2021/01/21 00:17:18;;;;;;;1.00;0.90;;;23.90;71.50;;;;;;5093039;28;20444;-68
2021/01/21 00:19:44;;;;;;;1.00;0.80;;;23.90;71.50;;;;;;5095870;28;20799;-69
2021/01/21 00:22:10;;;;;;;1.00;0.80;;;23.90;71.40;;;;;;5097100;28;20448;-69
2021/01/21 00:24:36;;;;;;;1.00;0.80;;;24.00;71.50;;;;;;5097148;28;20432;-69
2021/01/21 00:27:03;;;;;;;1.03;0.80;;;23.90;71.40;;;;;;5097215;28;20444;-70
2021/01/21 00:29:29;;;;;;;1.00;0.77;;;23.90;72.20;;;;;;5097360;28;20494;-69
2021/01/21 00:31:56;;;;;;;1.00;0.70;;;23.90;71.40;;;;;;5097037;28;20440;-69
2021/01/21 00:34:24;;;;;;;1.00;0.77;;;23.90;71.30;;;;;;5096978;28;20444;-69
2021/01/21 00:36:50;;;;;;;1.00;0.70;;;23.90;71.20;;;;;;5096901;28;20534;-69
2021/01/21 00:39:17;;;;;;;1.37;1.10;;;23.90;71.10;;;;;;5096874;28;20480;-69
2021/01/21 00:41:43;;;;;;;1.03;0.93;;;23.90;71.10;;;;;;5097177;28;20481;-69
2021/01/21 00:44:09;;;;;;;1.13;0.90;;;23.90;71.00;;;;;;5096834;28;20960;-69
2021/01/21 00:46:35;;;;;;;1.03;0.80;;;23.90;71.00;;;;;;5096664;28;20442;-69
2021/01/21 00:49:04;;;;;;;1.30;0.90;;;23.90;70.90;;;;;;5096899;28;20451;-69
2021/01/21 00:51:30;;;;;;;1.00;0.77;;;23.90;70.90;;;;;;5096748;28;20739;-69
2021/01/21 00:53:56;;;;;;;1.07;0.80;;;23.90;70.90;;;;;;5096516;28;20442;-68
2021/01/21 00:56:23;;;;;;;1.00;0.70;;;23.90;70.90;;;;;;5096317;28;20902;-68
2021/01/21 00:58:50;;;;;;;1.00;0.80;;;23.90;71.60;;;;;;5096567;28;20551;-69
2021/01/21 01:01:17;;;;;;;1.00;0.80;;;23.90;70.70;;;;;;5096517;28;20458;-69
2021/01/21 01:03:43;;;;;;;1.10;0.90;;;23.90;70.70;;;;;;5096398;28;20440;-69
2021/01/21 01:06:10;;;;;;;1.00;0.70;;;23.90;70.70;;;;;;5096457;28;20439;-70
2021/01/21 01:08:36;;;;;;;1.10;0.90;;;23.90;70.60;;;;;;5096283;28;20440;-69
2021/01/21 01:11:03;;;;;;;1.20;0.70;;;23.80;70.40;;;;;;5096228;28;20445;-69
2021/01/21 01:13:30;;;;;;;0.97;0.70;;;23.80;70.30;;;;;;5096229;28;20471;-69
2021/01/21 01:15:56;;;;;;;1.00;0.80;;;23.80;70.30;;;;;;5096111;28;20443;-69
2021/01/21 01:18:22;;;;;;;0.90;0.70;;;23.80;70.30;;;;;;5096267;28;20990;-69
2021/01/21 01:20:48;;;;;;;1.07;0.73;;;23.80;70.30;;;;;;5096085;28;20462;-69
2021/01/21 01:23:16;;;;;;;1.00;0.70;;;23.80;70.20;;;;;;5096004;28;20946;-70
2021/01/21 01:25:42;;;;;;;0.93;0.70;;;23.80;70.10;;;;;;5096079;28;20789;-69
2021/01/21 01:28:08;;;;;;;1.30;0.90;;;23.80;70.10;;;;;;5095898;28;20794;-69
2021/01/21 01:30:34;;;;;;;1.00;0.80;;;23.80;70.00;;;;;;5095527;28;20794;-70
2021/01/21 01:33:01;;;;;;;1.10;0.80;;;23.80;70.00;;;;;;5095889;28;20436;-72
2021/01/21 01:35:27;;;;;;;1.20;0.93;;;23.80;69.90;;;;;;5096019;28;20439;-70
2021/01/21 01:37:53;;;;;;;1.20;0.80;;;23.80;69.90;;;;;;5095492;28;20482;-69
2021/01/21 01:40:20;;;;;;;1.00;0.70;;;23.80;69.90;;;;;;5095784;28;20837;-69
2021/01/21 01:42:47;;;;;;;1.00;0.70;;;23.80;69.80;;;;;;5095735;28;20970;-69
2021/01/21 01:45:14;;;;;;;1.00;0.80;;;23.80;69.90;;;;;;5095602;28;20442;-69
2021/01/21 01:47:43;;;;;;;1.00;0.80;;;23.80;69.70;;;;;;5095838;28;20923;-69
2021/01/21 01:50:10;;;;;;;1.20;0.90;;;23.80;69.70;;;;;;5095558;28;20493;-69
2021/01/21 01:52:41;;;;;;;0.90;0.70;;;23.80;69.70;;;;;;5095380;28;20440;-69
2021/01/21 01:55:10;;;;;;;1.00;0.77;;;23.80;69.60;;;;;;5095661;28;20444;-69
2021/01/21 01:57:37;;;;;;;1.00;0.83;;;23.80;69.50;;;;;;5095000;28;20853;-69
2021/01/21 02:00:05;;;;;;;1.00;0.80;;;23.80;69.40;;;;;;5095473;28;20432;-69
2021/01/21 02:02:32;;;;;;;0.90;0.70;;;23.80;69.40;;;;;;5095042;28;20823;-69
2021/01/21 02:04:59;;;;;;;1.00;0.70;;;23.80;69.40;;;;;;5095517;28;20445;-69
2021/01/21 02:07:25;;;;;;;1.00;0.73;;;23.80;69.40;;;;;;5095145;28;20444;-68
2021/01/21 02:09:52;;;;;;;1.00;0.80;;;23.80;69.30;;;;;;5095380;28;20444;-69
2021/01/21 02:12:30;;;;;;;1.03;0.73;;;23.80;69.30;;;;;;5094917;28;20823;-69
2021/01/21 02:15:06;;;;;;;1.00;0.70;;;23.80;69.20;;;;;;5095062;28;20450;-69
2021/01/21 02:17:38;;;;;;;1.00;0.70;;;23.80;69.20;;;;;;5094970;28;20988;-69
2021/01/21 02:20:40;;;;;;;1.10;0.83;;;23.80;69.10;;;;;;5095085;28;20940;-69
2021/01/21 02:23:46;;;;;;;1.40;1.03;;;23.80;69.00;;;;;;5062739;28;20472;-69
2021/01/21 02:26:18;;;;;;;1.00;0.80;;;23.80;69.00;;;;;;5094902;28;20432;-69
2021/01/21 02:29:07;;;;;;;1.00;0.70;;;23.80;69.10;;;;;;5094774;28;20432;-70
2021/01/21 02:31:47;;;;;;;0.90;0.60;;;23.80;69.00;;;;;;5094752;28;20428;-69
2021/01/21 02:34:20;;;;;;;1.00;0.87;;;23.80;69.00;;;;;;5094730;28;20949;-69
2021/01/21 02:36:52;;;;;;;1.00;0.70;;;23.80;69.00;;;;;;5094631;28;20440;-70
2021/01/21 02:39:21;;;;;;;1.10;0.90;;;23.70;69.60;;;;;;5094581;28;20536;-70
2021/01/21 02:41:47;;;;;;;0.97;0.77;;;23.80;68.90;;;;;;5093530;28;20440;-69
2021/01/21 02:44:13;;;;;;;1.40;0.70;;;23.70;68.70;;;;;;5094444;28;20428;-70
2021/01/21 02:46:40;;;;;;;1.20;0.90;;;23.70;68.70;;;;;;5094460;28;20448;-69
2021/01/21 02:49:07;;;;;;;1.00;0.70;;;23.70;68.70;;;;;;5094500;28;20439;-69
2021/01/21 02:51:40;;;;;;;0.90;0.60;;;23.70;68.60;;;;;;5094728;28;20444;-69
2021/01/21 02:54:25;;;;;;;1.20;0.83;;;23.70;68.60;;;;;;5094416;28;20433;-69
2021/01/21 02:56:57;;;;;;;1.10;0.80;;;23.80;68.60;;;;;;5094094;28;20463;-70
2021/01/21 02:59:31;;;;;;;1.00;0.80;;;23.70;68.50;;;;;;5094217;28;20483;-69
2021/01/21 03:01:59;;;;;;;1.03;0.80;;;23.70;68.40;;;;;;5094254;28;20447;-69
2021/01/21 03:04:26;;;;;;;1.00;0.70;;;23.80;68.50;;;;;;5094200;28;20458;-69
2021/01/21 03:06:58;;;;;;;1.00;0.87;;;23.70;68.30;;;;;;5094254;28;20440;-71
2021/01/21 03:09:24;;;;;;;0.90;0.60;;;23.70;68.30;;;;;;5094138;28;20447;-69
2021/01/21 03:11:50;;;;;;;1.00;0.80;;;23.70;68.30;;;;;;5094048;28;20497;-69
2021/01/21 03:14:17;;;;;;;1.10;0.90;;;23.70;68.30;;;;;;5094006;28;20440;-69
2021/01/21 03:16:43;;;;;;;1.20;0.80;;;23.80;68.40;;;;;;5093761;28;20439;-69
2021/01/21 03:19:09;;;;;;;1.10;0.80;;;23.70;68.30;;;;;;5093996;28;20484;-69
2021/01/21 03:21:35;;;;;;;1.00;0.70;;;23.70;68.20;;;;;;5093746;28;20470;-69
2021/01/21 03:24:03;;;;;;;1.00;0.73;;;23.70;68.20;;;;;;5093836;28;20829;-69
2021/01/21 03:26:29;;;;;;;1.30;1.00;;;23.70;68.20;;;;;;5093764;28;20433;-70
2021/01/21 03:28:55;;;;;;;1.33;0.97;;;23.70;68.10;;;;;;5093619;28;20903;-69
2021/01/21 03:31:21;;;;;;;0.90;0.70;;;23.70;68.10;;;;;;5093577;28;20441;-69
2021/01/21 03:33:48;;;;;;;1.10;0.80;;;23.70;68.00;;;;;;5093498;28;20915;-69
2021/01/21 03:36:14;;;;;;;1.07;0.80;;;23.70;68.00;;;;;;5093704;28;20448;-69
2021/01/21 03:38:40;;;;;;;1.00;0.77;;;23.70;68.00;;;;;;5093523;28;20487;-68
2021/01/21 03:41:07;;;;;;;0.90;0.63;;;23.70;68.00;;;;;;5093441;28;20442;-69
2021/01/21 03:43:33;;;;;;;1.00;0.87;;;23.70;68.00;;;;;;5093340;28;20807;-69
2021/01/21 03:46:00;;;;;;;0.90;0.70;;;23.70;68.00;;;;;;5093645;28;20440;-69
2021/01/21 03:48:26;;;;;;;0.97;0.70;;;23.70;67.90;;;;;;5093528;28;20439;-69
2021/01/21 03:50:52;;;;;;;1.10;0.80;;;23.70;67.90;;;;;;5093493;28;20442;-69
2021/01/21 03:53:18;;;;;;;1.47;0.70;;;23.70;67.90;;;;;;5093116;28;20439;-70
2021/01/21 03:55:44;;;;;;;1.00;0.70;;;23.70;67.90;;;;;;5093517;28;20825;-69
2021/01/21 03:58:12;;;;;;;0.90;0.70;;;23.70;67.90;;;;;;5093041;28;20537;-69
2021/01/21 04:00:38;;;;;;;1.00;0.80;;;23.70;67.80;;;;;;5093361;28;20495;-69
2021/01/21 04:03:04;;;;;;;1.03;0.80;;;23.70;67.90;;;;;;5093177;28;20439;-69
2021/01/21 04:05:30;;;;;;;0.90;0.70;;;23.70;67.80;;;;;;5093281;28;20440;-69
2021/01/21 04:07:57;;;;;;;0.90;0.60;;;23.70;67.90;;;;;;5093349;28;20838;-69
2021/01/21 04:10:23;;;;;;;0.93;0.70;;;23.70;67.90;;;;;;5093288;28;20440;-70
2021/01/21 04:12:49;;;;;;;1.00;0.80;;;23.70;67.80;;;;;;5092917;28;20467;-69
2021/01/21 04:15:16;;;;;;;1.00;0.70;;;23.70;67.80;;;;;;5093174;28;20789;-69
2021/01/21 04:17:42;;;;;;;1.10;0.80;;;23.70;67.80;;;;;;5093037;28;20440;-69
2021/01/21 04:20:10;;;;;;;1.10;0.90;;;23.70;67.90;;;;;;5093093;28;20444;-69
2021/01/21 04:22:36;;;;;;;1.30;0.80;;;23.70;67.80;;;;;;5093111;28;20440;-69
2021/01/21 04:25:03;;;;;;;0.97;0.80;;;23.70;67.80;;;;;;5093180;28;20446;-69
2021/01/21 04:27:29;;;;;;;0.97;0.70;;;23.70;67.80;;;;;;5093041;28;20440;-69
2021/01/21 04:29:55;;;;;;;1.00;0.77;;;23.70;67.70;;;;;;5093012;28;20868;-69
2021/01/21 04:32:22;;;;;;;0.90;0.70;;;23.70;67.70;;;;;;5092912;28;20943;-68
2021/01/21 04:34:48;;;;;;;1.00;0.70;;;23.70;67.80;;;;;;5092971;28;20845;-69
2021/01/21 04:37:15;;;;;;;1.30;0.73;;;23.70;67.80;;;;;;5092967;28;20479;-71
2021/01/21 04:39:41;;;;;;;1.00;0.70;;;23.70;67.70;;;;;;5092931;28;20483;-69
2021/01/21 04:42:07;;;;;;;0.90;0.67;;;23.70;67.70;;;;;;5092583;28;20867;-69
2021/01/21 04:44:34;;;;;;;1.27;0.70;;;23.70;67.70;;;;;;5092984;28;20440;-69
2021/01/21 04:47:01;;;;;;;0.93;0.63;;;23.70;67.70;;;;;;5092864;28;20436;-69
2021/01/21 04:49:29;;;;;;;0.90;0.60;;;23.70;67.70;;;;;;5093158;28;20436;-71
2021/01/21 04:51:58;;;;;;;1.00;0.70;;;23.70;67.70;;;;;;5092977;28;20459;-69
2021/01/21 04:54:29;;;;;;;0.90;0.70;;;23.70;67.70;;;;;;5092857;28;20443;-69
2021/01/21 04:57:00;;;;;;;1.10;0.77;;;23.70;67.70;;;;;;5092821;28;20535;-69
2021/01/21 04:59:31;;;;;;;1.00;0.70;;;23.70;67.70;;;;;;5092863;28;20478;-70
2021/01/21 05:01:58;;;;;;;1.00;0.70;;;23.70;67.70;;;;;;5092782;28;20439;-69
2021/01/21 05:04:24;;;;;;;1.00;0.70;;;23.70;67.70;;;;;;5093071;28;20445;-69
2021/01/21 05:06:54;;;;;;;0.90;0.60;;;23.70;67.70;;;;;;5096373;28;20439;-69
2021/01/21 05:09:20;;;;;;;1.10;0.83;;;23.70;67.70;;;;;;5096462;28;20446;-69
2021/01/21 05:11:47;;;;;;;0.90;0.70;;;23.70;67.70;;;;;;5096192;28;20455;-69
2021/01/21 05:14:13;;;;;;;0.90;0.60;;;23.70;67.70;;;;;;5096434;28;20919;-69
2021/01/21 05:16:40;;;;;;;1.00;0.70;;;23.70;67.70;;;;;;5096303;28;20486;-69
2021/01/21 05:19:08;;;;;;;0.90;0.60;;;23.70;67.70;;;;;;5095955;28;20855;-69
2021/01/21 05:21:36;;;;;;;1.00;0.80;;;23.70;67.70;;;;;;5095960;28;20935;-69
2021/01/21 05:24:04;;;;;;;0.90;0.77;;;23.70;67.70;;;;;;5096201;28;20447;-69
2021/01/21 05:26:31;;;;;;;1.20;0.97;;;23.70;67.80;;;;;;5095977;28;21002;-69
2021/01/21 05:28:58;;;;;;;0.93;0.70;;;23.70;67.90;;;;;;5095987;28;20450;-69
2021/01/21 05:31:27;;;;;;;1.00;0.80;;;23.70;67.90;;;;;;5096021;28;20787;-68
2021/01/21 05:33:55;;;;;;;0.90;0.60;;;23.70;67.90;;;;;;5095830;28;20433;-69
2021/01/21 05:36:21;;;;;;;0.90;0.60;;;23.70;67.90;;;;;;5095886;28;20444;-69
2021/01/21 05:38:55;;;;;;;1.00;0.70;;;23.70;68.00;;;;;;5095630;28;20509;-70
2021/01/21 05:41:25;;;;;;;1.00;0.70;;;23.70;67.90;;;;;;5095678;28;20436;-69
2021/01/21 05:43:51;;;;;;;1.00;0.70;;;23.70;68.10;;;;;;5095789;28;20440;-69
2021/01/21 05:46:18;;;;;;;0.90;0.60;;;23.70;68.10;;;;;;5095664;28;20438;-71
2021/01/21 05:48:45;;;;;;;0.90;0.70;;;23.70;68.20;;;;;;5095687;28;20439;-71
2021/01/21 05:51:12;;;;;;;0.90;0.70;;;23.70;68.30;;;;;;5095588;28;20913;-69
2021/01/21 05:53:40;;;;;;;1.10;0.70;;;23.70;68.40;;;;;;5095294;28;20459;-69
2021/01/21 05:56:09;;;;;;;0.90;0.70;;;23.70;68.50;;;;;;5095593;28;20455;-72
2021/01/21 05:58:37;;;;;;;1.13;0.70;;;23.80;68.70;;;;;;5095274;28;20484;-69
2021/01/21 06:01:05;;;;;;;0.90;0.70;;;23.70;68.50;;;;;;5095441;28;20436;-69
2021/01/21 06:03:34;;;;;;;1.20;0.77;;;23.70;68.50;;;;;;5095336;28;20447;-70
2021/01/21 06:06:00;;;;;;;0.90;0.70;;;23.70;68.60;;;;;;5095309;28;20444;-69
2021/01/21 06:08:28;;;;;;;0.90;0.70;;;23.70;68.50;;;;;;5095140;28;20482;-72
2021/01/21 06:10:56;;;;;;;1.10;0.80;;;23.70;68.50;;;;;;5095232;28;20466;-69
2021/01/21 06:13:22;;;;;;;0.90;0.60;;;23.70;68.60;;;;;;5094882;28;20455;-72
2021/01/21 06:15:49;;;;;;;1.00;0.67;;;23.70;68.50;;;;;;5095123;28;20771;-69
2021/01/21 06:18:16;;;;;;;0.90;0.60;;;23.70;68.60;;;;;;5095219;28;20544;-69
2021/01/21 06:20:42;;;;;;;1.00;0.70;;;23.70;68.50;;;;;;5094904;28;20448;-69
2021/01/21 06:23:14;;;;;;;1.00;0.60;;;23.70;68.50;;;;;;5094920;28;20479;-70
2021/01/21 06:25:42;;;;;;;0.90;0.60;;;23.70;68.50;;;;;;5094732;28;20451;-72
2021/01/21 06:28:10;;;;;;;0.90;0.57;;;23.70;68.50;;;;;;5094891;28;20441;-70
2021/01/21 06:30:38;;;;;;;0.90;0.60;;;23.70;68.40;;;;;;5094843;28;20447;-69
2021/01/21 06:33:06;;;;;;;0.90;0.60;;;23.70;68.30;;;;;;5094580;28;20972;-70
2021/01/21 06:35:35;;;;;;;0.90;0.60;;;23.70;68.30;;;;;;5094837;28;20445;-71
2021/01/21 06:38:06;;;;;;;0.90;0.60;;;23.70;68.20;;;;;;5094512;28;20467;-70
2021/01/21 06:40:35;;;;;;;1.10;0.70;;;23.70;68.20;;;;;;5094671;28;20444;-72
2021/01/21 06:43:07;;;;;;;0.90;0.67;;;23.70;68.10;;;;;;5094460;28;20471;-70
2021/01/21 06:45:35;;;;;;;0.90;0.60;;;23.70;68.10;;;;;;5094422;28;20438;-69
2021/01/21 06:48:02;;;;;;;0.90;0.60;;;23.70;68.00;;;;;;5094504;28;20811;-71
2021/01/21 06:50:30;;;;;;;0.90;0.60;;;23.70;68.00;;;;;;5094405;28;20437;-70
2021/01/21 06:52:59;;;;;;;1.00;0.70;;;23.80;68.10;;;;;;5094173;28;20493;-69
2021/01/21 06:55:27;;;;;;;0.90;0.60;;;23.70;67.90;;;;;;5094321;28;20993;-73
2021/01/21 06:57:54;;;;;;;1.10;0.70;;;23.80;68.00;;;;;;5093944;28;21069;-71
2021/01/21 07:00:39;;;;;;;0.90;0.60;;;23.70;67.90;;;;;;5094146;28;20446;-69
2021/01/21 07:03:05;;;;;;;0.87;0.60;;;23.80;67.90;;;;;;5094407;28;20522;-69
2021/01/21 07:05:33;;;;;;;1.33;0.70;;;23.70;67.90;;;;;;5094128;28;20435;-70
2021/01/21 07:08:01;;;;;;;1.10;0.70;;;23.70;67.80;;;;;;5094039;28;20433;-69
2021/01/21 07:10:31;;;;;;;1.00;0.70;;;23.70;67.80;;;;;;5093812;28;20440;-70
2021/01/21 07:13:00;;;;;;;0.90;0.60;;;23.70;67.70;;;;;;5093727;28;20464;-71
2021/01/21 07:15:30;;;;;;;0.90;0.60;;;23.70;67.70;;;;;;5093933;28;20496;-72
2021/01/21 07:18:02;;;;;;;0.90;0.60;;;23.70;67.60;;;;;;5093884;28;20427;-69
2021/01/21 07:20:33;;;;;;;0.90;0.70;;;23.70;67.60;;;;;;5093856;28;20950;-70
2021/01/21 07:23:08;;;;;;;0.90;0.60;;;23.80;67.80;;;;;;5093795;28;20439;-69
2021/01/21 07:25:35;;;;;;;1.20;0.80;;;23.80;67.70;;;;;;5093843;28;20432;-70
2021/01/21 07:28:10;;;;;;;1.33;0.70;;;23.70;67.60;;;;;;5093526;28;20793;-69
2021/01/21 07:30:38;;;;;;;0.90;0.60;;;23.80;67.60;;;;;;5093532;28;20910;-69
2021/01/21 07:33:22;;;;;;;1.00;0.57;;;23.70;67.60;;;;;;5093529;28;20444;-69
2021/01/21 07:35:49;;;;;;;0.90;0.70;;;23.80;67.60;;;;;;5093656;28;20445;-69
2021/01/21 07:38:48;;;;;;;0.90;0.60;;;23.70;67.60;;;;;;5093523;28;20479;-69
2021/01/21 07:41:47;;;;;;;0.90;0.60;;;23.80;67.50;;;;;;5093431;28;20471;-69
2021/01/21 07:44:13;;;;;;;0.90;0.57;;;23.70;67.40;;;;;;5093163;28;20467;-71
2021/01/21 07:46:40;;;;;;;1.37;0.80;;;23.70;67.50;;;;;;5093541;28;20443;-69
2021/01/21 07:49:23;;;;;;;11.17;1.13;;;23.90;67.70;;;;;;5090836;28;20900;-71
2021/01/21 07:52:00;;;;;;;3.40;1.00;;;23.70;67.60;;;;;;5092741;28;20435;-73
2021/01/21 07:54:27;;;;;;;9.33;1.50;;;23.70;68.10;;;;;;5091996;28;20446;-67
2021/01/21 07:56:54;;;;;;;2.20;0.90;;;23.80;68.60;;;;;;5092855;28;20467;-70
2021/01/21 07:59:20;;;;;;;2.50;1.10;;;23.70;68.50;;;;;;5093264;28;20500;-67
2021/01/21 08:01:57;;;;;;;3.20;0.80;;;23.70;68.50;;;;;;5093100;28;20445;-67
2021/01/21 08:04:23;;;;;;;2.93;1.00;;;23.80;68.90;;;;;;5091475;28;20783;-76
2021/01/21 08:06:57;;;;;;;1.53;0.80;;;23.70;68.80;;;;;;5092428;28;20808;-74
2021/01/21 08:09:24;;;;;;;1.20;0.80;;;23.80;68.90;;;;;;5093040;28;20455;-75
2021/01/21 08:11:52;;;;;;;23.13;2.60;;;23.70;68.50;;;;;;5092869;28;20476;-67
2021/01/21 08:14:18;;;;;;;4.70;1.10;;;23.70;68.80;;;;;;5092941;28;20463;-69
2021/01/21 08:16:48;;;;;;;3.57;0.90;;;23.70;68.80;;;;;;5091841;28;20527;-79
2021/01/21 08:19:14;;;;;;;3.00;1.40;;;23.70;68.40;;;;;;5091333;28;20476;-78
2021/01/21 08:21:41;;;;;;;5.50;0.97;;;23.70;68.30;;;;;;5092573;28;20447;-72
2021/01/21 08:24:08;;;;;;;1.20;0.93;;;23.70;68.10;;;;;;5092915;28;20506;-77
2021/01/21 08:26:37;;;;;;;1.17;0.80;;;23.80;68.00;;;;;;5092038;28;20455;-70
2021/01/21 08:29:08;;;;;;;7.00;1.23;;;23.80;68.00;;;;;;5092764;28;20437;-77
2021/01/21 08:31:38;;;;;;;1.60;0.87;;;23.70;67.70;;;;;;5092576;28;20440;-72
2021/01/21 08:34:08;;;;;;;4.07;0.90;;;23.80;67.80;;;;;;5092917;28;20438;-75
2021/01/21 08:36:34;;;;;;;2.00;0.90;;;23.70;67.60;;;;;;5092441;28;20451;-74
2021/01/21 08:39:03;;;;;;;1.90;0.87;;;23.80;67.70;;;;;;5092652;28;20481;-70
2021/01/21 08:41:30;;;;;;;1.83;0.83;;;23.90;67.70;;;;;;5096402;28;20467;-70
2021/01/21 08:44:00;;;;;;;2.93;1.17;;;23.80;67.60;;;;;;5096748;28;20432;-70
2021/01/21 08:46:28;;;;;;;4.50;0.80;;;23.80;67.50;;;;;;5096193;28;20528;-71
2021/01/21 08:48:54;;;;;;;2.30;0.80;;;23.80;67.40;;;;;;5096651;28;20434;-71
2021/01/21 08:51:25;;;;;;;2.70;0.80;;;23.80;67.40;;;;;;5096461;28;20442;-68
2021/01/21 08:53:51;;;;;;;1.83;1.10;;;23.80;67.40;;;;;;5096513;28;20445;-72
2021/01/21 08:56:17;;;;;;;3.10;1.00;;;23.80;68.20;;;;;;5096035;28;20431;-74
2021/01/21 08:58:44;;;;;;;1.87;0.80;;;23.80;67.30;;;;;;5096451;28;20490;-75
2021/01/21 09:01:12;;;;;;;1.10;0.90;;;23.80;67.30;;;;;;5094696;28;20444;-74
2021/01/21 09:03:45;;;;;;;3.60;0.90;;;23.80;67.20;;;;;;5096256;28;20479;-69
2021/01/21 09:06:11;;;;;;;3.10;0.80;;;23.80;67.20;;;;;;5094461;28;20448;-68
2021/01/21 09:08:49;;;;;;;1.60;0.77;;;23.80;67.20;;;;;;5094433;28;20503;-70
2021/01/21 09:11:30;;;;;;;1.30;0.70;;;23.80;67.10;;;;;;5094631;28;20472;-70
2021/01/21 09:13:56;;;;;;;1.77;0.80;;;23.80;67.10;;;;;;5095777;28;20585;-67
2021/01/21 09:16:42;;;;;;;1.20;0.80;;;23.80;67.10;;;;;;5094712;28;20510;-71
2021/01/21 09:19:09;;;;;;;1.00;0.70;;;23.80;66.90;;;;;;5091655;28;21074;-70
2021/01/21 09:21:35;;;;;;;2.03;0.90;;;23.80;67.00;;;;;;5095392;28;20457;-69
2021/01/21 09:24:10;;;;;;;1.00;0.70;;;23.80;67.00;;;;;;5095564;28;21300;-69
2021/01/21 09:26:36;;;;;;;1.67;0.83;;;23.90;67.00;;;;;;5095311;28;20450;-68
2021/01/21 09:29:03;;;;;;;1.47;0.70;;;23.80;66.90;;;;;;5095743;28;20497;-69
2021/01/21 09:31:31;;;;;;;2.07;0.70;;;23.80;66.80;;;;;;5095679;28;20448;-68
2021/01/21 09:33:59;;;;;;;1.07;0.77;;;23.80;66.80;;;;;;5095442;28;20441;-68
2021/01/21 09:36:27;;;;;;;2.47;0.90;;;23.80;66.80;;;;;;5095161;28;20451;-69
2021/01/21 09:38:53;;;;;;;1.23;0.80;;;23.90;66.80;;;;;;5095386;28;20481;-70
2021/01/21 09:41:20;;;;;;;2.53;0.80;;;23.90;66.80;;;;;;5095435;28;20467;-71
2021/01/21 09:43:46;;;;;;;1.30;0.83;;;23.90;66.80;;;;;;5095345;28;20445;-71
2021/01/21 09:46:12;;;;;;;1.00;0.60;;;23.80;66.60;;;;;;5095302;28;20430;-68
2021/01/21 09:48:38;;;;;;;1.73;0.60;;;23.90;66.70;;;;;;5095414;28;20449;-68
2021/01/21 09:51:06;;;;;;;1.20;0.80;;;23.90;66.70;;;;;;5094974;28;20497;-68
2021/01/21 09:53:32;;;;;;;1.10;0.70;;;23.90;66.60;;;;;;5095306;28;20445;-70
2021/01/21 09:55:58;;;;;;;1.00;0.80;;;23.90;66.50;;;;;;5095186;28;20535;-71
2021/01/21 09:58:25;;;;;;;1.00;0.70;;;23.90;66.50;;;;;;5094535;28;20501;-69
2021/01/21 10:00:52;;;;;;;1.97;0.70;;;23.90;66.40;;;;;;5095070;28;20440;-69
2021/01/21 10:03:18;;;;;;;1.73;0.83;;;23.90;66.40;;;;;;5093952;28;20919;-68
2021/01/21 10:05:45;;;;;;;1.30;0.80;;;23.90;66.20;;;;;;5094149;28;20469;-70
2021/01/21 10:08:13;;;;;;;1.00;0.80;;;23.90;66.30;;;;;;5094498;28;20473;-69
2021/01/21 10:10:39;;;;;;;1.20;1.07;;;23.90;66.30;;;;;;5094770;28;20455;-69
2021/01/21 10:13:06;;;;;;;3.93;0.60;;;23.90;66.20;;;;;;5093834;28;20979;-72
2021/01/21 10:15:32;;;;;;;1.00;0.70;;;23.90;66.10;;;;;;5092565;28;20442;-69
2021/01/21 10:17:58;;;;;;;1.83;0.70;;;23.90;66.10;;;;;;5092876;28;21166;-69
2021/01/21 10:20:24;;;;;;;1.00;0.70;;;23.90;66.20;;;;;;5093065;28;20897;-68
2021/01/21 10:22:51;;;;;;;1.50;0.93;;;24.00;67.10;;;;;;5092864;28;20460;-68
2021/01/21 10:25:18;;;;;;;2.17;0.90;;;23.90;66.10;;;;;;5093337;28;20444;-69
2021/01/21 10:27:44;;;;;;;1.20;0.70;;;23.90;66.10;;;;;;5093235;28;20440;-70
2021/01/21 10:30:11;;;;;;;1.10;0.70;;;23.90;66.20;;;;;;5093362;28;20445;-68
2021/01/21 10:32:38;;;;;;;1.10;0.80;;;23.90;66.20;;;;;;5093228;28;20444;-69
2021/01/21 10:35:05;;;;;;;0.90;0.60;;;24.00;66.30;;;;;;5093551;28;21026;-68
2021/01/21 10:37:31;;;;;;;1.20;0.70;;;23.90;66.10;;;;;;5093945;28;20807;-68
2021/01/21 10:39:58;;;;;;;1.00;0.70;;;23.90;66.10;;;;;;5094432;28;20475;-73
2021/01/21 10:42:25;;;;;;;0.90;0.70;;;24.00;66.10;;;;;;5094052;28;20472;-69
2021/01/21 10:44:51;;;;;;;1.10;0.90;;;23.90;66.00;;;;;;5094225;28;20438;-69
2021/01/21 10:47:17;;;;;;;1.23;0.80;;;23.90;65.90;;;;;;5093969;28;20808;-69
2021/01/21 10:49:44;;;;;;;1.00;0.80;;;24.00;65.90;;;;;;5093530;28;20440;-73
2021/01/21 10:52:10;;;;;;;0.93;0.77;;;24.00;65.90;;;;;;5092781;28;20493;-69
2021/01/21 10:54:36;;;;;;;1.10;0.70;;;24.00;65.90;;;;;;5094138;28;20437;-70
2021/01/21 10:57:02;;;;;;;1.10;0.73;;;24.00;65.90;;;;;;5093765;28;20473;-69
2021/01/21 10:59:29;;;;;;;1.20;0.70;;;24.00;65.80;;;;;;5093805;28;20484;-68
2021/01/21 11:01:56;;;;;;;1.20;0.80;;;24.00;65.80;;;;;;5093473;28;20441;-70
2021/01/21 11:04:23;;;;;;;1.03;0.73;;;24.00;65.70;;;;;;5094016;28;20771;-69
2021/01/21 11:06:50;;;;;;;0.90;0.60;;;24.00;65.70;;;;;;5089273;28;20493;-69
2021/01/21 11:09:16;;;;;;;1.10;0.77;;;24.00;65.60;;;;;;5093375;28;20447;-68
2021/01/21 11:11:43;;;;;;;1.20;0.80;;;24.00;65.60;;;;;;5093527;28;20553;-69
2021/01/21 11:14:09;;;;;;;1.20;0.70;;;24.00;65.60;;;;;;5093573;28;20437;-68
2021/01/21 11:16:36;;;;;;;1.30;0.80;;;24.00;65.50;;;;;;5093642;28;20447;-71
2021/01/21 11:19:02;;;;;;;1.20;0.83;;;24.00;65.40;;;;;;5092705;28;20488;-72
2021/01/21 11:21:32;;;;;;;1.10;0.70;;;24.00;65.80;;;;;;5089923;28;20431;-72
2021/01/21 11:23:59;;;;;;;1.47;0.77;;;24.00;65.70;;;;;;5090425;28;20443;-72
2021/01/21 11:26:25;;;;;;;1.03;0.60;;;24.00;65.50;;;;;;5093117;28;20444;-71
2021/01/21 11:28:53;;;;;;;1.50;0.97;;;24.00;65.50;;;;;;5093255;28;20479;-69
2021/01/21 11:31:20;;;;;;;1.20;0.80;;;24.00;65.40;;;;;;5090311;28;20809;-72
2021/01/21 11:33:47;;;;;;;1.00;0.70;;;24.00;66.20;;;;;;5092891;28;20532;-71
2021/01/21 11:36:13;;;;;;;1.40;0.73;;;24.00;65.30;;;;;;5093119;28;20489;-73
2021/01/21 11:38:39;;;;;;;1.00;0.60;;;24.00;65.30;;;;;;5092979;28;20469;-73
2021/01/21 11:41:05;;;;;;;1.77;0.70;;;24.00;65.30;;;;;;5092736;28;20457;-73
2021/01/21 11:43:32;;;;;;;1.10;0.73;;;24.00;65.30;;;;;;5092984;28;20442;-73
2021/01/21 11:45:58;;;;;;;1.53;0.77;;;24.00;65.20;;;;;;5093025;28;20486;-73
2021/01/21 11:48:24;;;;;;;1.10;0.80;;;24.00;65.20;;;;;;5092721;28;20445;-73
2021/01/21 11:50:51;;;;;;;1.10;0.80;;;24.00;65.10;;;;;;5092631;28;20436;-72
2021/01/21 11:53:18;;;;;;;1.30;0.70;;;24.00;65.20;;;;;;5092825;28;20429;-71
2021/01/21 11:55:44;;;;;;;1.23;0.77;;;24.00;65.10;;;;;;5092896;28;20438;-72
2021/01/21 11:58:10;;;;;;;0.97;0.70;;;24.00;65.10;;;;;;5092661;28;20469;-72
2021/01/21 12:00:36;;;;;;;1.00;0.80;;;24.00;65.00;;;;;;5089807;28;20471;-72
2021/01/21 12:03:03;;;;;;;0.90;0.67;;;24.00;65.00;;;;;;5092641;28;20455;-68
2021/01/21 12:05:29;;;;;;;1.10;0.80;;;24.00;65.00;;;;;;5092550;28;20442;-73
2021/01/21 12:07:56;;;;;;;1.73;1.30;;;24.00;65.00;;;;;;5091828;28;20432;-73
2021/01/21 12:10:23;;;;;;;0.93;0.60;;;24.00;64.90;;;;;;5091119;28;20449;-72
2021/01/21 12:12:49;;;;;;;1.00;0.73;;;24.00;64.90;;;;;;5092383;28;20501;-73
2021/01/21 12:15:15;;;;;;;1.10;0.60;;;24.00;64.80;;;;;;5090606;28;20444;-73
2021/01/21 12:17:42;;;;;;;1.10;0.87;;;24.00;64.80;;;;;;5082649;28;20612;-73
2021/01/21 12:20:10;;;;;;;1.00;0.80;;;24.00;64.80;;;;;;5087711;28;20884;-73
2021/01/21 12:22:36;;;;;;;1.30;0.70;;;24.00;64.80;;;;;;5085682;28;20522;-73
2021/01/21 12:25:04;;;;;;;1.23;0.70;;;24.00;64.70;;;;;;5084476;28;20442;-74
2021/01/21 12:27:31;;;;;;;1.00;0.70;;;24.00;64.70;;;;;;5076153;28;20441;-73
2021/01/21 12:29:57;;;;;;;1.20;0.80;;;24.00;64.70;;;;;;5075952;28;20426;-71
2021/01/21 12:32:23;;;;;;;1.27;0.80;;;24.00;64.70;;;;;;5075963;28;20574;-73
2021/01/21 12:34:49;;;;;;;0.90;0.70;;;24.00;64.70;;;;;;5076159;28;20930;-72
2021/01/21 12:37:16;;;;;;;1.20;0.70;;;24.00;65.60;;;;;;5076579;28;20445;-73
2021/01/21 12:39:42;;;;;;;2.03;1.00;;;24.00;65.10;;;;;;5076321;28;20476;-70
2021/01/21 12:42:10;;;;;;;1.00;0.80;;;24.00;65.30;;;;;;5076066;28;20518;-73
2021/01/21 12:44:36;;;;;;;1.00;0.70;;;24.10;65.90;;;;;;5075635;28;20476;-73
2021/01/21 12:47:02;;;;;;;3.90;0.90;;;24.00;65.70;;;;;;5075913;28;20451;-72
2021/01/21 12:49:29;;;;;;;1.00;0.80;;;24.00;65.80;;;;;;5076459;28;20487;-71
2021/01/21 12:51:55;;;;;;;2.03;0.70;;;24.10;66.10;;;;;;5075974;28;21053;-73